createdAt,value
2023-05-21T00:11:21.329Z,2011.39417
2023-05-21T00:26:23.366Z,1219.45483
2023-05-21T00:41:25.492Z,702.48126
2023-05-21T00:56:27.582Z,2551.90918
2023-05-21T01:11:29.670Z,6823.29688
2023-05-21T01:26:31.702Z,3212.95728
2023-05-21T01:41:33.706Z,8728.2832
2023-05-21T01:56:35.749Z,1741.1366
2023-05-21T02:11:37.858Z,422.8071
2023-05-21T02:26:39.946Z,861.6225
2023-05-21T02:41:42.004Z,251.42427
2023-05-21T02:56:44.081Z,197.74942
2023-05-21T03:11:46.112Z,104.5247
2023-05-21T03:26:48.269Z,29.19158
2023-05-21T03:41:50.383Z,4.70832
2023-05-21T03:56:52.458Z,0.94166
2023-05-21T04:11:54.511Z,0
2023-05-21T04:26:56.561Z,0
2023-05-21T04:41:58.736Z,0
2023-05-21T04:57:01.563Z,0
2023-05-21T05:12:03.618Z,0
2023-05-21T05:27:05.791Z,0
2023-05-21T05:42:07.923Z,0
2023-05-21T05:57:10.058Z,0
2023-05-21T06:12:14.912Z,0
2023-05-21T06:27:17.264Z,0
2023-05-21T06:42:19.333Z,0
2023-05-21T06:57:21.374Z,0
2023-05-21T07:12:23.486Z,0
2023-05-21T07:27:26.227Z,0
2023-05-21T07:42:28.473Z,0
2023-05-21T07:57:30.526Z,0
2023-05-21T08:12:32.686Z,0
2023-05-21T08:27:34.783Z,0
2023-05-21T08:42:37.756Z,0
2023-05-21T08:57:39.949Z,0
2023-05-21T09:12:42.034Z,0
2023-05-21T09:27:44.139Z,0
2023-05-21T09:42:46.217Z,0
2023-05-21T09:57:49.903Z,0
2023-05-21T10:12:53.036Z,0
2023-05-21T10:27:55.043Z,0
2023-05-21T10:42:57.147Z,0
2023-05-21T10:57:59.208Z,0
2023-05-21T11:13:01.330Z,0
2023-05-21T11:28:03.405Z,0.94166
2023-05-21T11:43:05.485Z,2.82499
2023-05-21T11:58:07.592Z,15.06662
2023-05-21T12:13:09.716Z,61.20816
2023-05-21T12:28:11.816Z,100.75804
2023-05-21T12:43:13.898Z,167.61618
2023-05-21T12:58:16.048Z,242.9493
2023-05-21T13:13:18.148Z,420.92377
2023-05-21T13:28:20.179Z,749.56445
2023-05-21T13:43:22.221Z,820.18927
2023-05-21T13:58:24.283Z,1607.42029
2023-05-21T14:13:26.386Z,2522.71753
2023-05-21T14:28:28.538Z,3774.18896
2023-05-21T14:43:30.578Z,4094.35474
2023-05-21T14:58:32.741Z,4239.37109
2023-05-21T15:13:34.831Z,1103.63013
2023-05-21T15:28:36.865Z,759.92279
2023-05-21T15:43:38.954Z,1740.19495
2023-05-21T15:58:41.106Z,873.86414
2023-05-21T16:13:43.147Z,402.09048
2023-05-21T16:28:45.229Z,498.14023
2023-05-21T16:43:47.319Z,1714.77002
2023-05-21T16:58:49.432Z,4161.21289
2023-05-21T17:13:51.539Z,11479.8252
2023-05-21T17:28:53.643Z,13874.47656
2023-05-21T17:43:55.704Z,13482.74414
2023-05-21T17:58:57.824Z,15235.18066
2023-05-21T18:13:59.914Z,5135.83496
2023-05-21T18:29:01.976Z,5423.04248
2023-05-21T18:44:04.031Z,12686.09668
2023-05-21T18:59:06.230Z,11489.24121
2023-05-21T19:14:08.333Z,11681.34082
2023-05-21T19:29:10.439Z,11551.3916
2023-05-21T19:44:12.505Z,5963.55762
2023-05-21T19:59:14.667Z,5738.5
2023-05-21T20:14:16.732Z,7992.84326
2023-05-21T20:29:18.836Z,7263.05371
2023-05-21T20:44:21.030Z,4957.86035
2023-05-21T20:59:23.106Z,11186.96777
2023-05-21T21:14:25.145Z,9622.86328
2023-05-21T21:29:27.196Z,9806.48828
2023-05-21T21:44:29.276Z,10793.35156
2023-05-21T21:59:31.396Z,3516.1731
2023-05-21T22:14:33.583Z,2409.71802
2023-05-21T22:29:35.723Z,539.57343
2023-05-21T22:44:37.930Z,167.61618
2023-05-21T22:59:40.062Z,166.67451
2023-05-21T23:14:42.127Z,338.99902
2023-05-21T23:29:44.337Z,1326.80444
2023-05-21T23:44:46.559Z,17093.08398
2023-05-21T23:59:48.743Z,16993.26758
